Omerville, Canada
Current Conditions -  °F | °C
As of 3:00 PM on Wednesday 26 Nov 2014 (Local Time) from CYSC Reporting Station
Overcast Overcast  
Wind Chill: -1°   Ceiling: 7000
Heat Index: -1°   Visibility: 9mi
Dew Point: -5°   Wind: 2mph
Humidity: 75%   Direction: 340°NNW
Pressure: 30.13"   Gusts: NA
Location:  45.28°N, 72.12°W
Report Text: CYSC 262000Z AUTO 34002KT 9SM BKN070 OVC080 M01/M05 A3013 RMK PRESFR SLP215
Loading
Personal Weather Stations






























Interactive Weather Map New forecast layout! Learn more

10-Day Weather Forecast

Advertisements
Track Severe Weather on mobile